Time;durP1;ratioP1;P1;durP2;ratioP2;P2;SDS_P1;SDS_P2;PMS_P1;PMS_P2;Temp;Humidity;BMP_temperature;BMP_pressure;BME280_temperature;BME280_humidity;BME280_pressure;Samples;Min_cycle;Max_cycle;Signal;HPM_P1;HPM_P2
2022/04/07 00:00:37;;;;;;;4.85;4.37;;;;;;;14.27;54.00;97917.29;1755651;81;20930;-65
2022/04/07 00:03:05;;;;;;;4.87;4.47;;;;;;;14.27;53.99;97910.09;1755283;81;20950;-62
2022/04/07 00:05:32;;;;;;;5.08;4.58;;;;;;;14.32;53.90;97909.41;1756304;81;20985;-65
2022/04/07 00:08:00;;;;;;;5.75;4.30;;;;;;;14.34;53.78;97905.46;1756467;81;21215;-63
2022/04/07 00:10:28;;;;;;;4.17;3.77;;;;;;;14.35;53.68;97901.75;1756279;81;20922;-63
2022/04/07 00:12:57;;;;;;;4.40;4.00;;;;;;;14.35;53.61;97895.58;1755128;81;20907;-65
2022/04/07 00:15:24;;;;;;;4.30;3.90;;;;;;;14.34;53.54;97889.41;1755599;81;20887;-65
2022/04/07 00:17:52;;;;;;;4.28;3.42;;;;;;;14.34;53.51;97887.28;1756604;81;20982;-65
2022/04/07 00:20:20;;;;;;;4.28;3.87;;;;;;;14.36;53.42;97889.20;1754931;81;21300;-64
2022/04/07 00:22:48;;;;;;;5.10;3.55;;;;;;;14.40;53.28;97883.14;1755268;81;21009;-65
2022/04/07 00:25:17;;;;;;;5.28;3.65;;;;;;;14.43;53.19;97882.69;1756130;81;20986;-63
2022/04/07 00:27:46;;;;;;;3.90;3.60;;;;;;;14.44;53.11;97878.97;1755867;81;21501;-64
2022/04/07 00:30:19;;;;;;;4.70;3.90;;;;;;;14.43;53.12;97880.52;1755689;81;20895;-64
2022/04/07 00:32:44;;;;;;;4.72;4.33;;;;;;;14.44;53.06;97873.63;1755768;81;21224;-62
2022/04/07 00:35:11;;;;;;;4.45;4.05;;;;;;;14.43;53.04;97866.63;1756490;81;21508;-64
2022/04/07 00:37:40;;;;;;;4.67;4.28;;;;;;;14.43;53.08;97863.95;1755741;81;20955;-65
2022/04/07 00:40:09;;;;;;;4.37;3.98;;;;;;;14.45;53.05;97860.52;1747576;81;20990;-64
2022/04/07 00:42:48;;;;;;;4.15;3.80;;;;;;;14.45;53.04;97854.34;1752397;80;20899;-63
2022/04/07 00:45:18;;;;;;;5.47;3.47;;;;;;;14.46;52.88;97858.14;1754918;81;21409;-65
2022/04/07 00:47:47;;;;;;;4.70;3.72;;;;;;;14.46;52.87;97852.80;1756491;81;21496;-65
2022/04/07 00:50:16;;;;;;;4.60;3.65;;;;;;;14.43;52.91;97847.08;1755219;80;20942;-64
2022/04/07 00:52:54;;;;;;;4.75;4.25;;;;;;;14.41;52.88;97851.86;1755932;81;20947;-63
2022/04/07 00:55:21;;;;;;;5.42;4.53;;;;;;;14.39;52.86;97844.59;1756597;81;21484;-63
2022/04/07 00:57:49;;;;;;;4.72;3.75;;;;;;;14.42;52.76;97846.78;1763642;80;21822;-64
2022/04/07 01:00:16;;;;;;;4.10;3.70;;;;;;;14.47;52.63;97838.89;1764735;80;20851;-64
2022/04/07 01:02:44;;;;;;;4.58;4.17;;;;;;;14.48;52.53;97835.16;1762962;81;21590;-65
2022/04/07 01:05:12;;;;;;;5.25;4.37;;;;;;;14.49;52.40;97835.45;1762617;81;21009;-65
2022/04/07 01:07:40;;;;;;;6.10;4.60;;;;;;;14.51;52.33;97839.52;1764515;80;20977;-63
2022/04/07 01:10:09;;;;;;;5.25;4.75;;;;;;;14.52;52.18;97840.34;1752757;80;21231;-64
2022/04/07 01:12:38;;;;;;;5.08;4.60;;;;;;;14.48;52.13;97825.79;1764075;80;20914;-65
2022/04/07 01:15:07;;;;;;;5.83;5.28;;;;;;;14.48;52.07;97826.61;1764570;80;21530;-66
2022/04/07 01:17:34;;;;;;;5.33;4.83;;;;;;;14.47;52.00;97825.52;1764377;80;20949;-65
2022/04/07 01:20:07;;;;;;;5.62;5.12;;;;;;;14.50;51.85;97831.20;1764414;80;21044;-62
2022/04/07 01:22:36;;;;;;;5.72;4.97;;;;;;;14.49;51.76;97820.22;1764173;80;21308;-63
2022/04/07 01:25:07;;;;;;;7.05;5.45;;;;;;;14.50;51.71;97821.01;1738302;81;20958;-63
2022/04/07 01:27:34;;;;;;;7.53;6.22;;;;;;;14.49;51.67;97812.71;1764794;80;20977;-62
2022/04/07 01:30:07;;;;;;;6.37;5.78;;;;;;;14.44;51.68;97809.41;1764811;80;20997;-64
2022/04/07 01:32:45;;;;;;;6.67;5.70;;;;;;;14.42;51.67;97806.65;1764004;80;21518;-64
2022/04/07 01:35:13;;;;;;;6.05;5.05;;;;;;;14.39;51.63;97808.48;1753489;80;21196;-65
2022/04/07 01:37:43;;;;;;;6.97;5.08;;;;;;;14.39;51.60;97804.47;1764372;80;21006;-65
2022/04/07 01:40:12;;;;;;;5.22;4.72;;;;;;;14.38;51.54;97801.49;1752767;80;20965;-65
2022/04/07 01:42:39;;;;;;;5.12;4.37;;;;;;;14.40;51.43;97800.21;1764269;80;20878;-62
2022/04/07 01:45:08;;;;;;;5.20;4.10;;;;;;;14.40;51.26;97796.20;1764241;80;21555;-64
2022/04/07 01:47:36;;;;;;;4.40;4.00;;;;;;;14.41;51.25;97793.00;1764017;80;21220;-62
2022/04/07 01:50:07;;;;;;;5.30;4.35;;;;;;;14.39;51.23;97789.76;1764321;80;21524;-63
2022/04/07 01:52:41;;;;;;;6.50;3.98;;;;;;;14.37;51.22;97792.65;1764918;80;20978;-64
2022/04/07 01:55:08;;;;;;;5.95;4.22;;;;;;;14.37;51.12;97787.30;1752809;80;20942;-63
2022/04/07 01:57:37;;;;;;;4.35;3.95;;;;;;;14.36;51.16;97780.34;1759082;80;21453;-64
2022/04/07 02:00:06;;;;;;;4.67;4.00;;;;;;;14.37;51.12;97783.28;1701069;81;21255;-62
2022/04/07 02:02:35;;;;;;;4.03;3.70;;;;;;;14.34;51.10;97778.40;1754519;81;21063;-64
2022/04/07 02:05:08;;;;;;;4.37;3.98;;;;;;;14.34;51.08;97777.06;1756767;81;20982;-65
2022/04/07 02:07:34;;;;;;;4.22;3.80;;;;;;;14.37;50.99;97769.09;1754482;81;20998;-65
2022/04/07 02:10:07;;;;;;;4.33;3.92;;;;;;;14.35;50.91;97769.34;1756672;81;21044;-65
2022/04/07 02:12:37;;;;;;;4.87;4.25;;;;;;;14.33;50.91;97774.12;1755603;81;20919;-63
2022/04/07 02:15:06;;;;;;;3.52;3.22;;;;;;;14.32;50.89;97764.45;1756159;81;21512;-63
2022/04/07 02:17:35;;;;;;;3.75;3.45;;;;;;;14.34;50.79;97767.70;1756375;81;20981;-63
2022/04/07 02:20:05;;;;;;;4.20;3.52;;;;;;;14.33;50.79;97761.27;1756616;81;22242;-67
2022/04/07 02:22:32;;;;;;;4.55;3.45;;;;;;;14.31;50.85;97762.84;1756788;81;21057;-63
2022/04/07 02:25:01;;;;;;;3.87;3.22;;;;;;;14.31;50.74;97762.00;1756606;81;21502;-64
2022/04/07 02:27:39;;;;;;;5.33;3.75;;;;;;;14.30;50.74;97753.16;1756336;81;21386;-64
2022/04/07 02:30:09;;;;;;;3.70;3.33;;;;;;;14.30;50.76;97759.84;1754353;81;21508;-63
2022/04/07 02:32:37;;;;;;;4.00;3.62;;;;;;;14.30;50.72;97757.16;1755076;81;20936;-63
2022/04/07 02:35:06;;;;;;;4.15;3.75;;;;;;;14.28;50.72;97758.45;1755990;81;20997;-67
2022/04/07 02:37:34;;;;;;;4.08;3.60;;;;;;;14.27;50.75;97744.26;1754874;81;21874;-65
2022/04/07 02:40:01;;;;;;;4.20;3.35;;;;;;;14.25;50.78;97746.36;1756440;81;20990;-65
2022/04/07 02:42:30;;;;;;;4.62;4.03;;;;;;;14.24;50.81;97749.55;1755338;81;21311;-64
2022/04/07 02:44:57;;;;;;;3.92;3.50;;;;;;;14.30;50.68;97746.47;1756223;81;20911;-64
2022/04/07 02:47:34;;;;;;;4.00;3.60;;;;;;;14.29;50.68;97740.81;1755589;81;21500;-64
2022/04/07 02:50:02;;;;;;;5.10;3.60;;;;;;;14.32;50.63;97744.39;1756667;81;21291;-65
2022/04/07 02:52:29;;;;;;;3.20;2.98;;;;;;;14.36;50.54;97744.75;1754481;81;20938;-64
2022/04/07 02:54:58;;;;;;;3.47;3.17;;;;;;;14.31;50.63;97734.77;1755959;81;20970;-63
2022/04/07 02:57:29;;;;;;;3.50;3.20;;;;;;;14.31;50.67;97735.25;1754483;81;21002;-65
2022/04/07 02:59:55;;;;;;;4.72;3.35;;;;;;;14.29;50.68;97734.12;1750858;81;20938;-65
2022/04/07 03:02:22;;;;;;;3.47;3.17;;;;;;;14.30;50.62;97735.77;1752433;81;21300;-64
2022/04/07 03:04:49;;;;;;;3.85;3.12;;;;;;;14.40;50.49;97731.99;1751103;81;21397;-65
2022/04/07 03:07:17;;;;;;;3.87;3.35;;;;;;;14.37;50.56;97728.45;1751541;81;20990;-64
2022/04/07 03:09:45;;;;;;;3.95;3.27;;;;;;;14.36;50.57;97729.52;1751244;81;21432;-63
2022/04/07 03:12:13;;;;;;;4.22;3.77;;;;;;;14.33;50.62;97723.30;1753632;81;20938;-63
2022/04/07 03:14:41;;;;;;;5.12;3.90;;;;;;;14.24;50.82;97728.67;1751321;81;21247;-65
2022/04/07 03:17:09;;;;;;;4.08;3.67;;;;;;;14.25;50.81;97724.97;1713773;82;20925;-64
2022/04/07 03:19:37;;;;;;;3.62;3.33;;;;;;;14.26;50.83;97723.90;1724608;82;21511;-64
2022/04/07 03:22:06;;;;;;;4.12;3.72;;;;;;;14.22;50.86;97717.41;1750838;81;20993;-66
2022/04/07 03:24:34;;;;;;;3.62;3.30;;;;;;;14.19;50.93;97709.85;1752891;81;20936;-65
2022/04/07 03:27:04;;;;;;;4.15;3.75;;;;;;;14.04;51.25;97714.87;1751380;81;21258;-66
2022/04/07 03:29:31;;;;;;;4.15;3.75;;;;;;;14.03;51.32;97710.56;1751215;81;21516;-64
2022/04/07 03:31:59;;;;;;;4.35;3.95;;;;;;;13.99;51.41;97709.42;1751393;81;20895;-64
2022/04/07 03:34:27;;;;;;;5.03;3.52;;;;;;;13.98;51.43;97702.44;1750527;82;20859;-64
2022/04/07 03:36:56;;;;;;;3.92;3.62;;;;;;;13.97;51.46;97708.34;1751176;81;20910;-66
2022/04/07 03:39:23;;;;;;;4.20;3.80;;;;;;;13.93;51.52;97704.48;1751417;81;21234;-65
2022/04/07 03:41:50;;;;;;;4.22;3.83;;;;;;;13.89;51.61;97702.00;1751521;80;21484;-64
2022/04/07 03:44:18;;;;;;;4.42;3.95;;;;;;;13.87;51.68;97709.97;1750928;81;20947;-63
2022/04/07 03:46:46;;;;;;;4.47;4.08;;;;;;;13.80;51.88;97712.74;1750523;81;21433;-65
2022/04/07 03:49:15;;;;;;;3.85;3.55;;;;;;;13.75;52.03;97709.95;1751328;81;20922;-63
2022/04/07 03:51:43;;;;;;;3.85;3.55;;;;;;;13.75;52.05;97706.47;1751161;81;21345;-67
2022/04/07 03:54:11;;;;;;;3.90;3.58;;;;;;;13.76;52.01;97709.44;1750915;81;21009;-66
2022/04/07 03:56:38;;;;;;;3.90;3.45;;;;;;;13.76;52.00;97709.44;1751020;81;20994;-62
2022/04/07 03:59:05;;;;;;;4.33;3.92;;;;;;;13.74;51.98;97707.53;1711420;83;21014;-64
2022/04/07 04:01:32;;;;;;;4.35;3.95;;;;;;;13.76;52.01;97708.11;1689524;84;21076;-63
2022/04/07 04:04:01;;;;;;;4.90;4.35;;;;;;;13.77;52.01;97711.05;1666345;86;22125;-64
2022/04/07 04:06:28;;;;;;;4.00;3.60;;;;;;;13.76;52.09;97717.45;1666805;86;20911;-67
2022/04/07 04:08:56;;;;;;;3.92;3.62;;;;;;;13.79;52.05;97719.12;1667020;86;21639;-62
2022/04/07 04:11:25;;;;;;;4.30;3.50;;;;;;;13.79;52.02;97712.44;1674583;85;21006;-63
2022/04/07 04:13:52;;;;;;;4.28;3.87;;;;;;;13.86;51.90;97709.66;1674885;85;21063;-65
2022/04/07 04:16:21;;;;;;;4.03;3.72;;;;;;;13.85;51.93;97712.03;1674770;85;20994;-64
2022/04/07 04:18:48;;;;;;;3.85;3.55;;;;;;;13.88;51.83;97708.91;1674802;85;21066;-63
2022/04/07 04:21:17;;;;;;;3.45;3.15;;;;;;;13.92;51.71;97711.41;1673124;85;20994;-66
2022/04/07 04:23:45;;;;;;;5.28;3.40;;;;;;;13.95;51.60;97708.25;1675137;85;20919;-64
2022/04/07 04:26:12;;;;;;;4.15;3.30;;;;;;;14.01;51.39;97716.68;1674885;85;21058;-66
2022/04/07 04:28:40;;;;;;;3.55;3.25;;;;;;;14.08;51.27;97714.17;1675021;85;21228;-63
2022/04/07 04:31:09;;;;;;;3.70;3.40;;;;;;;14.14;51.10;97709.23;1663926;85;20867;-64
2022/04/07 04:33:38;;;;;;;4.33;3.92;;;;;;;14.18;50.88;97708.24;1674728;85;20915;-61
2022/04/07 04:36:08;;;;;;;4.58;4.17;;;;;;;14.22;50.79;97709.38;1674323;85;21065;-66
2022/04/07 04:38:37;;;;;;;4.20;3.80;;;;;;;14.28;50.63;97712.47;1674909;85;21496;-65
2022/04/07 04:41:05;;;;;;;3.55;3.25;;;;;;;14.30;50.63;97713.55;1674790;85;21306;-64
2022/04/07 04:43:34;;;;;;;4.17;3.42;;;;;;;14.32;50.46;97727.52;1674617;85;21006;-64
2022/04/07 04:46:01;;;;;;;5.30;3.52;;;;;;;14.35;50.39;97713.16;1674801;85;20931;-64
2022/04/07 04:48:30;;;;;;;3.60;3.30;;;;;;;14.39;50.31;97701.48;1674822;85;20959;-65
2022/04/07 04:50:59;;;;;;;3.45;3.15;;;;;;;14.42;50.36;97706.33;1674808;85;21010;-65
2022/04/07 04:53:26;;;;;;;3.55;3.25;;;;;;;14.52;50.16;97704.67;1674892;85;21132;-65
2022/04/07 04:55:54;;;;;;;3.33;3.02;;;;;;;14.63;49.90;97709.17;1674634;85;21535;-63
2022/04/07 04:58:21;;;;;;;3.80;3.50;;;;;;;14.57;50.03;97706.66;1695439;83;20947;-62
2022/04/07 05:00:49;;;;;;;4.03;3.62;;;;;;;14.55;50.04;97706.06;1707710;83;21071;-63
2022/04/07 05:03:16;;;;;;;5.15;3.52;;;;;;;14.66;49.86;97706.55;1756409;81;20922;-63
2022/04/07 05:05:43;;;;;;;4.12;3.72;;;;;;;14.62;49.80;97699.55;1755583;81;21831;-62
2022/04/07 05:08:11;;;;;;;3.77;3.45;;;;;;;14.65;49.76;97705.73;1756340;81;20918;-66
2022/04/07 05:10:40;;;;;;;3.33;3.02;;;;;;;14.62;49.65;97708.09;1756614;81;21448;-62
2022/04/07 05:13:09;;;;;;;3.47;3.17;;;;;;;14.60;49.51;97710.98;1744753;81;21481;-63
2022/04/07 05:15:37;;;;;;;2.45;2.25;;;;;;;14.62;49.62;97705.41;1755537;80;20908;-62
2022/04/07 05:18:06;;;;;;;3.33;3.02;;;;;;;14.68;49.38;97697.23;1755983;81;21236;-64
2022/04/07 05:20:33;;;;;;;3.50;3.15;;;;;;;14.73;49.23;97692.52;1756460;81;20934;-66
2022/04/07 05:23:00;;;;;;;5.22;4.72;;;;;;;14.74;49.25;97699.48;1755312;81;21021;-64
2022/04/07 05:25:29;;;;;;;6.40;5.30;;;;;;;14.76;49.15;97701.38;1754766;81;20960;-66
2022/04/07 05:27:56;;;;;;;9.10;5.17;;;;;;;14.82;49.06;97701.25;1755251;81;20959;-66
2022/04/07 05:30:23;;;;;;;6.65;5.20;;;;;;;14.91;48.84;97690.16;1755630;81;21970;-64
2022/04/07 05:32:51;;;;;;;5.10;4.60;;;;;;;14.99;48.66;97699.93;1756585;81;20974;-65
2022/04/07 05:35:19;;;;;;;4.28;3.87;;;;;;;15.12;48.42;97692.93;1755778;81;20968;-65
2022/04/07 05:37:47;;;;;;;4.12;3.72;;;;;;;15.34;48.14;97687.16;1756001;80;20934;-66
2022/04/07 05:40:14;;;;;;;3.95;3.27;;;;;;;15.55;47.56;97680.28;1756495;81;20972;-67
2022/04/07 05:42:42;;;;;;;3.72;3.40;;;;;;;15.76;47.19;97685.41;1755720;81;21260;-65
2022/04/07 05:45:10;;;;;;;3.87;3.47;;;;;;;15.89;46.64;97683.72;1707811;83;21437;-63
2022/04/07 05:47:41;;;;;;;3.62;3.20;;;;;;;16.00;46.38;97680.12;1756356;80;20942;-63
2022/04/07 05:50:10;;;;;;;3.47;3.17;;;;;;;16.07;46.22;97684.77;1743724;81;20945;-65
2022/04/07 05:52:37;;;;;;;3.45;3.15;;;;;;;16.13;45.89;97682.45;1755350;81;21558;-65
2022/04/07 05:55:07;;;;;;;3.62;3.33;;;;;;;16.38;45.73;97672.55;1744615;81;20950;-65
2022/04/07 05:57:35;;;;;;;4.60;4.20;;;;;;;16.79;45.15;97661.22;1753478;81;20966;-65
2022/04/07 06:00:12;;;;;;;4.47;3.85;;;;;;;17.07;44.41;97659.64;1726867;82;21524;-64
2022/04/07 06:02:41;;;;;;;4.50;3.70;;;;;;;17.57;43.43;97649.83;1726736;82;21575;-65
2022/04/07 06:05:09;;;;;;;3.12;2.83;;;;;;;18.15;42.67;97652.85;1712445;82;20943;-64
2022/04/07 06:07:44;;;;;;;4.05;3.65;;;;;;;18.83;41.57;97651.77;1728126;82;21238;-63
2022/04/07 06:10:11;;;;;;;4.28;3.70;;;;;;;19.55;39.76;97646.72;1728125;82;21066;-67
2022/04/07 06:12:46;;;;;;;5.25;3.77;;;;;;;20.03;39.36;97645.25;1727961;82;21504;-65
2022/04/07 06:15:15;;;;;;;4.95;3.02;;;;;;;20.28;38.63;97639.25;1727763;82;21477;-66
2022/04/07 06:17:47;;;;;;;2.92;2.62;;;;;;;20.28;37.84;97642.52;1726277;82;21496;-64
2022/04/07 06:20:21;;;;;;;2.98;2.70;;;;;;;20.12;37.68;97652.53;1715736;83;21992;-67
2022/04/07 06:22:48;;;;;;;2.72;2.52;;;;;;;19.96;37.89;97644.20;1727797;82;21425;-68
2022/04/07 06:25:17;;;;;;;3.22;2.92;;;;;;;19.88;38.17;97634.50;1726560;82;20887;-66
2022/04/07 06:27:47;;;;;;;3.45;3.15;;;;;;;19.80;38.38;97633.71;1726803;82;20867;-65
2022/04/07 06:30:17;;;;;;;3.15;2.85;;;;;;;19.66;38.19;97645.59;1727880;82;20970;-66
2022/04/07 06:32:47;;;;;;;3.08;2.75;;;;;;;19.40;38.35;97642.12;1727674;82;20939;-64
2022/04/07 06:35:16;;;;;;;3.20;2.90;;;;;;;19.21;38.50;97641.57;1727658;82;20875;-66
2022/04/07 06:37:56;;;;;;;3.00;2.70;;;;;;;18.97;38.88;97630.50;1721235;82;21091;-66
2022/04/07 06:40:26;;;;;;;2.65;2.45;;;;;;;18.76;39.22;97634.24;1707235;82;21528;-65
2022/04/07 06:42:55;;;;;;;3.08;2.58;;;;;;;18.63;39.70;97621.28;1720999;82;21014;-66
2022/04/07 06:45:23;;;;;;;2.42;2.22;;;;;;;18.68;39.78;97615.91;1727544;82;21327;-64
2022/04/07 06:47:51;;;;;;;2.42;2.22;;;;;;;18.70;39.98;97625.34;1727211;82;21005;-66
2022/04/07 06:50:19;;;;;;;2.40;2.20;;;;;;;18.88;39.81;97607.31;1727071;83;20907;-61
2022/04/07 06:52:50;;;;;;;2.40;2.12;;;;;;;19.16;39.68;97599.27;1727156;82;20974;-65
2022/04/07 06:55:18;;;;;;;2.90;2.40;;;;;;;19.31;39.27;97605.98;1726311;83;20899;-64
2022/04/07 06:58:01;;;;;;;3.35;2.58;;;;;;;19.82;38.65;97612.12;1726950;82;21279;-63
2022/04/07 07:00:32;;;;;;;3.10;2.80;;;;;;;20.09;38.35;97603.14;1722747;83;20851;-65
2022/04/07 07:03:04;;;;;;;4.67;3.40;;;;;;;20.40;37.93;97603.02;1722760;83;21021;-65
2022/04/07 07:05:34;;;;;;;4.72;2.83;;;;;;;20.61;37.43;97607.23;1722934;83;20978;-66
2022/04/07 07:08:18;;;;;;;4.22;2.83;;;;;;;20.55;37.39;97596.17;1722651;83;21068;-67
2022/04/07 07:10:49;;;;;;;4.35;3.02;;;;;;;20.42;37.36;97597.60;1692858;83;20931;-66
2022/04/07 07:13:22;;;;;;;2.92;2.55;;;;;;;20.16;37.77;97599.59;1721907;83;21401;-70
2022/04/07 07:15:50;;;;;;;2.58;2.37;;;;;;;19.95;38.05;97618.82;1722032;83;20899;-65
2022/04/07 07:18:17;;;;;;;2.25;2.05;;;;;;;19.77;38.45;97603.23;1722442;83;21005;-67
2022/04/07 07:20:44;;;;;;;2.58;2.00;;;;;;;19.57;38.74;97604.09;1722622;83;21001;-67
2022/04/07 07:23:11;;;;;;;2.77;2.50;;;;;;;19.45;39.07;97595.49;1721836;83;21305;-66
2022/04/07 07:25:39;;;;;;;2.65;2.42;;;;;;;19.44;38.98;97601.42;1722645;83;20940;-65
2022/04/07 07:28:09;;;;;;;4.33;2.70;;;;;;;19.39;38.99;97605.48;1714135;83;21049;-64
2022/04/07 07:30:36;;;;;;;3.65;2.77;;;;;;;19.31;39.11;97596.55;1722559;83;21501;-66
2022/04/07 07:33:03;;;;;;;5.37;2.87;;;;;;;19.27;39.17;97594.64;1722621;83;20985;-69
2022/04/07 07:35:30;;;;;;;2.80;2.10;;;;;;;19.19;39.27;97611.39;1722723;83;21254;-66
2022/04/07 07:38:00;;;;;;;3.67;2.40;;;;;;;19.09;39.27;97601.39;1722591;83;20891;-63
2022/04/07 07:40:32;;;;;;;2.42;2.22;;;;;;;19.01;39.51;97596.55;1721103;83;20951;-64
2022/04/07 07:43:01;;;;;;;3.85;2.67;;;;;;;19.06;39.54;97594.66;1721527;83;20974;-64
2022/04/07 07:45:33;;;;;;;3.02;2.72;;;;;;;19.07;39.54;97592.25;1722773;82;20930;-66
2022/04/07 07:48:04;;;;;;;5.28;3.22;;;;;;;19.07;39.70;97595.47;1673953;85;21010;-66
2022/04/07 07:50:31;;;;;;;2.70;2.50;;;;;;;19.09;39.73;97591.97;1666219;86;20970;-64
2022/04/07 07:52:58;;;;;;;3.80;2.27;;;;;;;19.13;39.68;97586.86;1666251;86;20998;-69
2022/04/07 07:55:27;;;;;;;4.03;2.35;;;;;;;19.14;39.71;97587.92;1665845;86;20974;-64
2022/04/07 07:57:55;;;;;;;2.55;2.17;;;;;;;19.29;39.64;97579.03;1655205;86;21524;-66
2022/04/07 08:00:23;;;;;;;2.65;1.92;;;;;;;19.47;39.42;97586.59;1676708;83;21256;-67
2022/04/07 08:02:52;;;;;;;3.47;2.27;;;;;;;20.23;38.37;97580.41;1695377;83;20989;-65
2022/04/07 08:05:21;;;;;;;3.37;2.67;;;;;;;21.08;37.25;97576.93;1694185;84;21021;-67
2022/04/07 08:07:49;;;;;;;2.50;2.30;;;;;;;22.06;35.71;97568.63;1693639;84;21021;-66
2022/04/07 08:10:16;;;;;;;3.05;2.65;;;;;;;23.01;34.51;97572.47;1694303;84;20855;-65
2022/04/07 08:12:45;;;;;;;7.10;2.40;;;;;;;23.68;33.38;97561.55;1694067;84;21543;-67
2022/04/07 08:15:13;;;;;;;3.80;2.40;;;;;;;24.35;32.24;97554.48;1694285;84;20904;-67
2022/04/07 08:17:42;;;;;;;3.27;2.33;;;;;;;25.06;30.26;97558.31;1683098;84;21021;-67
2022/04/07 08:20:12;;;;;;;2.30;2.05;;;;;;;25.87;29.56;97546.14;1681211;84;21480;-67
2022/04/07 08:22:39;;;;;;;3.37;2.10;;;;;;;26.34;29.16;97549.98;1679217;85;20927;-67
2022/04/07 08:25:07;;;;;;;2.35;2.08;;;;;;;27.09;28.06;97535.12;1694356;84;21252;-65
2022/04/07 08:27:35;;;;;;;2.80;1.90;;;;;;;27.71;27.29;97533.53;1694351;84;21621;-67
2022/04/07 08:30:03;;;;;;;1.82;1.70;;;;;;;28.36;26.41;97530.88;1694151;84;21579;-65
2022/04/07 08:32:33;;;;;;;3.95;2.10;;;;;;;28.77;25.19;97517.24;1694738;84;20985;-65
2022/04/07 08:35:01;;;;;;;2.10;1.90;;;;;;;29.07;24.18;97557.05;1694066;84;21832;-66
2022/04/07 08:37:29;;;;;;;2.00;1.77;;;;;;;28.71;24.76;97516.64;1694354;84;21234;-66
2022/04/07 08:39:57;;;;;;;1.67;1.57;;;;;;;28.11;24.89;97532.63;1694238;84;20862;-65
2022/04/07 08:42:24;;;;;;;2.10;1.90;;;;;;;27.56;25.29;97524.49;1694391;84;20910;-66
2022/04/07 08:44:52;;;;;;;3.40;1.80;;;;;;;27.05;25.71;97536.88;1694242;84;20997;-66
2022/04/07 08:47:20;;;;;;;1.92;1.42;;;;;;;26.68;26.19;97524.11;1694361;84;20890;-66
2022/04/07 08:49:51;;;;;;;2.40;1.90;;;;;;;26.90;26.00;97511.72;1694179;84;21288;-67
2022/04/07 08:52:21;;;;;;;2.02;1.82;;;;;;;26.77;26.58;97506.42;1694230;84;20883;-66
2022/04/07 08:54:48;;;;;;;2.02;1.70;;;;;;;27.25;26.23;97508.90;1694168;84;20918;-62
2022/04/07 08:57:16;;;;;;;2.33;2.05;;;;;;;27.38;26.03;97503.80;1694470;84;20961;-68
2022/04/07 08:59:44;;;;;;;2.10;1.90;;;;;;;27.15;26.04;97505.16;1694312;81;20942;-64
2022/04/07 09:02:11;;;;;;;1.95;1.65;;;;;;;27.16;25.72;97500.75;1694316;84;21308;-66
2022/04/07 09:04:40;;;;;;;1.70;1.60;;;;;;;26.85;26.30;97490.03;1664101;86;20986;-67
2022/04/07 09:07:07;;;;;;;2.95;1.80;;;;;;;26.94;26.12;97490.83;1694334;84;20994;-63
2022/04/07 09:09:36;;;;;;;2.10;1.90;;;;;;;26.62;26.24;97488.58;1693240;84;21074;-66
2022/04/07 09:12:06;;;;;;;2.05;1.65;;;;;;;26.41;26.45;97480.80;1694405;84;21528;-66
2022/04/07 09:14:37;;;;;;;2.95;2.08;;;;;;;26.52;26.70;97483.45;1679308;85;20987;-63
2022/04/07 09:17:06;;;;;;;2.77;1.60;;;;;;;26.30;26.59;97479.52;1693848;84;21049;-64
2022/04/07 09:19:37;;;;;;;2.10;1.90;;;;;;;26.21;26.61;97467.24;1694438;84;20970;-67
2022/04/07 09:22:11;;;;;;;2.02;1.70;;;;;;;26.06;26.69;97462.23;1694156;84;21546;-62
2022/04/07 09:24:39;;;;;;;4.90;1.70;;;;;;;26.18;26.66;97467.07;1694481;84;20989;-67
2022/04/07 09:27:11;;;;;;;1.70;1.60;;;;;;;26.29;26.36;97454.19;1694002;84;21999;-65
2022/04/07 09:29:44;;;;;;;2.02;1.85;;;;;;;26.45;26.37;97440.08;1694051;84;21507;-66
2022/04/07 09:32:25;;;;;;;1.92;1.60;;;;;;;26.75;26.22;97439.87;1684152;84;21018;-64
2022/04/07 09:34:56;;;;;;;1.98;1.35;;;;;;;26.61;26.43;97431.65;1694129;84;21018;-65
2022/04/07 09:37:29;;;;;;;2.20;1.60;;;;;;;26.77;26.24;97430.05;1694757;84;20960;-64
2022/04/07 09:40:12;;;;;;;2.80;1.45;;;;;;;27.65;25.35;97418.76;1694052;84;21199;-66
2022/04/07 09:42:44;;;;;;;2.05;1.40;;;;;;;27.36;25.48;97418.15;1694202;84;21002;-66
2022/04/07 09:45:13;;;;;;;1.50;1.20;;;;;;;27.61;24.95;97424.63;1683110;84;20993;-66
2022/04/07 09:47:45;;;;;;;2.05;1.45;;;;;;;27.48;24.99;97418.27;1679338;85;20939;-62
2022/04/07 09:50:23;;;;;;;7.83;1.40;;;;;;;28.43;23.87;97413.56;1669420;85;20947;-63
2022/04/07 09:53:03;;;;;;;1.80;1.70;;;;;;;28.66;23.71;97422.47;1694165;84;21249;-66
2022/04/07 09:55:43;;;;;;;1.50;1.40;;;;;;;29.11;23.23;97400.59;1694202;84;21033;-66
2022/04/07 09:58:12;;;;;;;1.22;1.07;;;;;;;29.71;22.74;97394.36;1694494;84;21499;-64
2022/04/07 10:00:40;;;;;;;2.25;1.20;;;;;;;30.44;21.87;97386.02;1715500;83;21473;-66
2022/04/07 10:03:10;;;;;;;1.27;1.17;;;;;;;30.96;21.24;97388.63;1743501;81;21500;-67
2022/04/07 10:05:38;;;;;;;1.98;1.30;;;;;;;31.05;20.56;97386.53;1756464;81;21244;-66
2022/04/07 10:08:09;;;;;;;1.35;1.25;;;;;;;31.12;20.31;97394.94;1755510;81;20973;-65
2022/04/07 10:10:38;;;;;;;1.20;1.10;;;;;;;30.78;20.52;97383.22;1721866;82;20994;-66
2022/04/07 10:13:08;;;;;;;1.10;1.02;;;;;;;30.14;20.74;97390.98;1743537;81;20954;-65
2022/04/07 10:15:39;;;;;;;2.65;1.10;;;;;;;29.69;20.98;97382.95;1755726;81;21068;-67
2022/04/07 10:18:12;;;;;;;0.90;0.90;;;;;;;29.34;20.89;97372.23;1751656;81;22160;-62
2022/04/07 10:20:44;;;;;;;1.40;1.30;;;;;;;29.07;21.42;97376.39;1755960;81;21016;-66
2022/04/07 10:23:46;;;;;;;1.80;1.45;;;;;;;28.95;22.18;97372.27;1745685;81;21014;-65
2022/04/07 10:26:15;;;;;;;1.40;1.30;;;;;;;28.66;23.15;97391.58;1756411;81;21551;-65
2022/04/07 10:28:43;;;;;;;1.50;1.40;;;;;;;28.14;23.38;97376.98;1756807;81;20962;-66
2022/04/07 10:31:15;;;;;;;2.08;1.50;;;;;;;27.78;23.78;97389.59;1692899;81;21948;-63
2022/04/07 10:33:46;;;;;;;1.70;1.60;;;;;;;27.58;24.43;97379.66;1755108;81;21481;-63
2022/04/07 10:36:22;;;;;;;3.30;1.85;;;;;;;27.47;24.95;97370.83;1745533;81;20939;-65
2022/04/07 10:38:52;;;;;;;2.55;1.50;;;;;;;27.38;25.22;97372.77;1756576;81;21035;-64
2022/04/07 10:41:43;;;;;;;1.98;1.20;;;;;;;27.26;24.61;97364.48;1756327;81;21006;-64
2022/04/07 10:44:23;;;;;;;1.55;1.40;;;;;;;27.18;24.89;97366.69;1745134;81;21264;-64
2022/04/07 10:46:49;;;;;;;3.00;1.45;;;;;;;27.11;24.81;97354.93;1754948;81;20899;-65
2022/04/07 10:49:24;;;;;;;2.17;1.30;;;;;;;27.05;25.14;97354.06;1755584;81;20910;-65
2022/04/07 10:51:55;;;;;;;1.40;1.30;;;;;;;26.96;24.96;97354.89;1755926;81;20855;-64
2022/04/07 10:54:23;;;;;;;1.47;1.37;;;;;;;26.88;24.68;97340.72;1754845;81;20938;-65
2022/04/07 10:56:56;;;;;;;1.65;1.20;;;;;;;26.84;24.74;97330.23;1756538;81;21277;-65
2022/04/07 10:59:32;;;;;;;2.98;1.20;;;;;;;26.81;24.22;97321.89;1755485;81;20961;-64
2022/04/07 11:02:10;;;;;;;1.87;1.27;;;;;;;26.89;24.69;97331.42;1755046;81;20987;-65
2022/04/07 11:05:00;;;;;;;2.30;1.20;;;;;;;26.98;24.28;97328.08;1756345;81;20946;-67
2022/04/07 11:07:27;;;;;;;1.45;1.15;;;;;;;27.10;23.82;97321.94;1747840;81;21405;-64
2022/04/07 11:10:01;;;;;;;1.10;1.00;;;;;;;27.15;23.82;97325.04;1755730;81;21538;-65
2022/04/07 11:12:39;;;;;;;2.67;1.00;;;;;;;27.17;23.61;97325.50;1756110;81;20899;-66
2022/04/07 11:15:37;;;;;;;1.00;0.90;;;;;;;27.21;23.11;97325.09;1756499;81;20950;-65
2022/04/07 11:18:50;;;;;;;0.78;0.70;;;;;;;27.22;22.78;97323.98;1756592;81;21007;-65
2022/04/07 11:21:18;;;;;;;1.50;1.00;;;;;;;27.18;22.43;97313.47;1746550;81;21440;-64
2022/04/07 11:23:52;;;;;;;1.27;1.10;;;;;;;27.09;22.95;97333.97;1755824;81;20890;-66
2022/04/07 11:26:25;;;;;;;1.77;1.07;;;;;;;26.93;23.40;97328.84;1756519;81;20910;-66
2022/04/07 11:29:11;;;;;;;1.15;1.10;;;;;;;26.79;23.55;97320.06;1756593;81;20966;-64
2022/04/07 11:31:50;;;;;;;1.62;1.00;;;;;;;26.55;23.60;97317.05;1754992;81;20982;-65
2022/04/07 11:38:21;;;;;;;3.00;1.30;;;;;;;25.94;24.12;97309.49;1746721;81;21516;-65
2022/04/07 11:41:12;;;;;;;1.62;1.17;;;;;;;25.64;24.05;97315.91;1756103;81;21029;-65
2022/04/07 11:43:43;;;;;;;1.42;1.25;;;;;;;25.51;24.69;97308.13;1755630;81;20983;-63
2022/04/07 11:46:10;;;;;;;2.65;1.32;;;;;;;25.42;24.70;97290.16;1743986;81;20950;-65
2022/04/07 11:48:38;;;;;;;1.25;1.15;;;;;;;25.35;24.97;97308.30;1756437;80;20982;-66
2022/04/07 11:51:13;;;;;;;3.35;1.60;;;;;;;25.41;24.97;97298.88;1744537;81;21473;-66